createdAt,value
2023-03-20T07:06:25.634Z,75.30
2023-03-20T07:09:28.529Z,75.50
2023-03-20T07:12:31.400Z,75.50
2023-03-20T07:15:34.553Z,75.50
2023-03-20T07:18:37.774Z,75.40
2023-03-20T07:21:42.322Z,75.50
2023-03-20T07:24:47.245Z,75.50
2023-03-20T07:27:51.164Z,75.40
2023-03-20T07:30:54.061Z,75.40
2023-03-20T07:33:56.892Z,75.40
2023-03-20T07:37:01.210Z,75.30
2023-03-20T07:40:04.718Z,75.30
2023-03-20T07:43:07.553Z,75.30
2023-03-20T07:46:10.826Z,75.20
2023-03-20T07:49:13.779Z,75.20
2023-03-20T07:52:17.973Z,75.30
2023-03-20T07:55:20.653Z,75.30
2023-03-20T07:58:23.514Z,75.50
2023-03-20T08:01:26.856Z,75.30
2023-03-20T08:04:29.754Z,75.40
2023-03-20T08:07:34.014Z,75.40
2023-03-20T08:10:36.944Z,75.50
2023-03-20T08:13:39.790Z,75.60
2023-03-20T08:16:42.676Z,75.60
2023-03-20T08:19:45.764Z,75.80
2023-03-20T08:22:50.350Z,75.70
2023-03-20T08:25:55.012Z,75.90
2023-03-20T08:28:59.121Z,75.90
2023-03-20T08:32:01.798Z,75.90
2023-03-20T08:35:05.397Z,76.30
2023-03-20T08:38:13.334Z,76.00
2023-03-20T08:41:16.761Z,76.10
2023-03-20T08:44:19.625Z,76.20
2023-03-20T08:47:22.474Z,76.20
2023-03-20T08:50:26.110Z,76.10
2023-03-20T08:53:30.405Z,76.00
2023-03-20T08:56:33.206Z,76.00
2023-03-20T08:59:36.385Z,76.10
2023-03-20T09:02:39.405Z,76.10
2023-03-20T09:05:42.539Z,76.20
2023-03-20T09:08:46.696Z,76.20
2023-03-20T09:11:49.432Z,76.40
2023-03-20T09:14:52.266Z,76.60
2023-03-20T09:17:55.142Z,76.20
2023-03-20T09:20:58.035Z,76.20
2023-03-20T09:24:02.224Z,76.10
2023-03-20T09:27:05.154Z,76.20
2023-03-20T09:30:10.741Z,76.40
2023-03-20T09:33:14.778Z,76.00
2023-03-20T09:36:17.990Z,75.90
2023-03-20T09:39:22.144Z,75.90
2023-03-20T09:42:36.606Z,75.80
2023-03-20T09:45:55.435Z,76.00
2023-03-20T09:49:11.774Z,75.90
2023-03-20T09:52:25.250Z,75.80
2023-03-20T09:55:36.836Z,75.60
2023-03-20T09:58:43.289Z,75.60
2023-03-20T10:01:52.742Z,75.40
2023-03-20T10:04:56.942Z,75.30
2023-03-20T10:08:02.677Z,75.30
2023-03-20T10:11:24.663Z,75.50
2023-03-20T10:14:39.024Z,75.40
2023-03-20T10:17:55.348Z,75.40
2023-03-20T10:21:06.964Z,75.30
2023-03-20T10:24:20.383Z,75.10
2023-03-20T10:27:28.414Z,75.10
2023-03-20T10:30:43.860Z,75.00
2023-03-20T10:34:01.396Z,75.10
2023-03-20T10:37:31.832Z,74.90
2023-03-20T10:40:39.324Z,75.10
2023-03-20T10:43:46.524Z,75.10
2023-03-20T10:46:56.471Z,75.30
2023-03-20T10:50:04.242Z,75.30
2023-03-20T10:53:09.275Z,75.30
2023-03-20T10:56:20.973Z,75.30
2023-03-20T10:59:28.104Z,75.40
2023-03-20T11:02:33.084Z,75.40
2023-03-20T11:05:38.081Z,75.40
2023-03-20T11:08:47.622Z,75.20
2023-03-20T11:11:57.041Z,75.00
2023-03-20T11:15:16.976Z,74.80
2023-03-20T11:18:20.297Z,75.00
2023-03-20T11:21:26.740Z,74.80
2023-03-20T11:24:39.043Z,74.80
2023-03-20T11:27:41.841Z,74.80
2023-03-20T11:31:03.533Z,75.20
2023-03-20T11:34:27.694Z,75.20
2023-03-20T11:37:45.462Z,74.90
2023-03-20T11:40:52.330Z,74.90
2023-03-20T11:43:56.140Z,74.80
2023-03-20T11:47:04.110Z,74.60
2023-03-20T11:50:25.050Z,75.10
2023-03-20T11:53:32.676Z,74.80
2023-03-20T11:56:37.282Z,74.70
2023-03-20T11:59:41.013Z,74.90
2023-03-20T12:02:46.202Z,75.00
2023-03-20T12:05:49.073Z,75.10
2023-03-20T12:08:57.926Z,74.80
2023-03-20T12:12:04.393Z,74.50
2023-03-20T12:15:19.507Z,74.10
2023-03-20T12:18:34.435Z,73.90
2023-03-20T12:21:48.327Z,73.90
2023-03-20T12:25:04.763Z,74.20
2023-03-20T12:28:18.422Z,74.30
2023-03-20T12:31:27.924Z,74.70
2023-03-20T12:34:39.021Z,74.60
2023-03-20T12:37:41.997Z,74.10
2023-03-20T12:40:47.182Z,73.60
2023-03-20T12:44:29.107Z,72.80
2023-03-20T12:48:04.315Z,71.80
2023-03-20T12:51:16.654Z,71.50
2023-03-20T12:54:39.075Z,71.60
2023-03-20T12:58:00.511Z,71.60
2023-03-20T13:01:09.924Z,71.40
2023-03-20T13:04:46.729Z,71.60
2023-03-20T13:08:15.321Z,71.50
2023-03-20T13:11:30.331Z,71.60
2023-03-20T13:14:43.158Z,71.60
2023-03-20T13:17:53.869Z,71.60
2023-03-20T13:20:58.875Z,71.80
2023-03-20T13:24:27.169Z,72.10
2023-03-20T13:27:41.416Z,71.80
2023-03-20T13:30:54.890Z,72.10
2023-03-20T13:34:12.203Z,72.20
2023-03-20T13:37:24.370Z,72.30
2023-03-20T13:40:32.859Z,72.40
2023-03-20T13:43:43.353Z,72.20
2023-03-20T13:46:51.481Z,72.10
2023-03-20T13:50:21.293Z,71.90
2023-03-20T13:53:34.438Z,71.80
2023-03-20T13:56:54.634Z,71.80
2023-03-20T14:00:09.276Z,71.60
2023-03-20T14:03:20.353Z,71.40
2023-03-20T14:06:50.367Z,71.20
2023-03-20T14:09:55.695Z,70.90
2023-03-20T14:13:03.147Z,71.30
2023-03-20T14:16:11.809Z,71.00
2023-03-20T14:19:21.632Z,70.90
2023-03-20T14:22:31.277Z,70.90
2023-03-20T14:25:40.879Z,70.90
2023-03-20T14:28:55.052Z,71.10
2023-03-20T14:32:21.950Z,71.10
2023-03-20T14:35:28.787Z,71.70
2023-03-20T14:38:40.258Z,71.20
2023-03-20T14:41:59.754Z,71.10
2023-03-20T14:45:39.632Z,70.90
2023-03-20T14:48:50.840Z,70.90
2023-03-20T14:52:01.492Z,71.10
2023-03-20T14:55:48.501Z,71.00
2023-03-20T14:58:57.725Z,70.40
2023-03-20T15:02:04.093Z,70.90
2023-03-20T15:05:08.156Z,71.00
2023-03-20T15:08:14.315Z,71.10
2023-03-20T15:11:18.418Z,70.80
2023-03-20T15:14:24.567Z,71.00
2023-03-20T15:17:37.421Z,70.70
2023-03-20T15:20:40.947Z,70.90
2023-03-20T15:23:45.274Z,71.00
2023-03-20T15:26:53.391Z,71.00
2023-03-20T15:29:58.640Z,71.00
2023-03-20T15:33:03.103Z,71.00
2023-03-20T15:36:11.921Z,71.10
2023-03-20T15:39:17.888Z,70.90
2023-03-20T15:42:24.379Z,71.00
2023-03-20T15:45:32.105Z,71.10
2023-03-20T15:48:36.260Z,71.20
2023-03-20T15:51:39.022Z,71.40
2023-03-20T15:54:44.118Z,71.40
2023-03-20T15:57:50.266Z,71.40
2023-03-20T16:00:53.288Z,71.60
2023-03-20T16:04:01.021Z,71.70
2023-03-20T16:07:07.062Z,71.80
2023-03-20T16:10:22.394Z,71.80
2023-03-20T16:13:27.110Z,71.90
2023-03-20T16:16:37.003Z,71.80
2023-03-20T16:19:41.380Z,71.80
2023-03-20T16:22:46.615Z,72.00
2023-03-20T16:25:49.524Z,72.10
2023-03-20T16:28:56.608Z,72.30
2023-03-20T16:32:04.351Z,72.60
2023-03-20T16:35:19.039Z,72.70
2023-03-20T16:38:29.163Z,72.90
2023-03-20T16:41:34.835Z,73.00
2023-03-20T16:44:39.484Z,72.90
2023-03-20T16:47:43.288Z,72.80
2023-03-20T16:50:53.071Z,72.80
2023-03-20T16:54:01.225Z,72.90
2023-03-20T16:57:10.378Z,73.00
2023-03-20T17:00:25.938Z,72.90
2023-03-20T17:03:36.152Z,73.00
2023-03-20T17:06:48.234Z,72.90
2023-03-20T17:09:59.038Z,73.00
2023-03-20T17:13:02.517Z,73.00
2023-03-20T17:16:06.078Z,73.00
2023-03-20T17:19:15.717Z,72.90
2023-03-20T17:22:23.000Z,72.90
2023-03-20T17:25:26.221Z,72.90
2023-03-20T17:28:35.882Z,73.50
2023-03-20T17:31:39.484Z,73.10
2023-03-20T17:34:43.626Z,73.10
2023-03-20T17:37:48.707Z,73.00
2023-03-20T17:40:53.548Z,72.90
2023-03-20T17:43:57.106Z,72.90
2023-03-20T17:47:02.262Z,72.90
2023-03-20T17:50:06.579Z,72.90
2023-03-20T17:53:16.770Z,72.90
2023-03-20T17:56:19.643Z,73.00
2023-03-20T17:59:22.548Z,73.10
2023-03-20T18:02:25.530Z,73.00
2023-03-20T18:05:28.646Z,73.10
2023-03-20T18:08:33.422Z,73.20
2023-03-20T18:11:36.588Z,73.20
2023-03-20T18:14:40.284Z,73.20
2023-03-20T18:17:43.162Z,73.20
2023-03-20T18:20:46.948Z,73.30
2023-03-20T18:23:51.138Z,73.40
2023-03-20T18:26:56.757Z,73.40
2023-03-20T18:29:59.642Z,73.50
2023-03-20T18:33:02.830Z,74.00
2023-03-20T18:36:06.618Z,73.60
2023-03-20T18:39:18.096Z,73.50
2023-03-20T18:42:21.217Z,73.50
2023-03-20T18:45:27.041Z,73.30
2023-03-20T18:48:30.812Z,73.40
2023-03-20T18:51:34.344Z,73.40
2023-03-20T18:54:38.541Z,73.40
2023-03-20T18:57:43.160Z,73.50
2023-03-20T19:00:46.185Z,73.80
2023-03-20T19:03:49.772Z,73.30
2023-03-20T19:06:52.746Z,73.40
2023-03-20T19:09:56.863Z,73.50
2023-03-20T19:12:59.548Z,73.60
2023-03-20T19:16:02.421Z,73.90
2023-03-20T19:19:08.113Z,73.40
2023-03-20T19:22:26.480Z,73.50
2023-03-20T19:25:34.164Z,73.60
2023-03-20T19:28:40.951Z,73.60
2023-03-20T19:31:44.423Z,73.60
2023-03-20T19:35:35.257Z,73.60
2023-03-20T19:38:15.022Z,73.60
2023-03-20T19:41:20.166Z,73.60
2023-03-20T19:44:23.167Z,73.50
2023-03-20T19:47:26.305Z,73.40
2023-03-20T19:50:34.741Z,73.40
2023-03-20T19:53:37.556Z,73.40
2023-03-20T19:56:41.789Z,73.10
2023-03-20T19:59:44.725Z,73.00
2023-03-20T20:02:48.771Z,72.90
2023-03-20T20:05:54.202Z,72.80
2023-03-20T20:08:56.999Z,73.10
2023-03-20T20:12:01.321Z,72.50
2023-03-20T20:15:04.475Z,72.60
2023-03-20T20:18:07.512Z,72.70
2023-03-20T20:24:33.430Z,72.90
2023-03-20T20:27:37.806Z,72.90
2023-03-20T20:30:41.378Z,73.20
2023-03-20T20:34:01.232Z,73.30
2023-03-20T20:40:30.900Z,73.50
2023-03-20T20:44:11.499Z,73.70
2023-03-20T20:46:58.672Z,73.90
2023-03-20T20:50:03.701Z,73.90
2023-03-20T20:53:08.030Z,74.10
2023-03-20T20:56:10.888Z,74.20
2023-03-20T20:59:15.243Z,74.30
2023-03-20T21:02:18.190Z,74.40
2023-03-20T21:05:21.878Z,74.50
2023-03-20T21:08:25.046Z,74.70
2023-03-20T21:11:28.622Z,74.70
2023-03-20T21:14:32.780Z,74.90
2023-03-20T21:17:35.496Z,75.00
2023-03-20T21:20:38.572Z,75.60
2023-03-20T21:23:42.739Z,74.70
2023-03-20T21:26:46.172Z,75.00
2023-03-20T21:29:50.996Z,75.90
2023-03-20T21:32:53.838Z,75.10
2023-03-20T21:35:56.734Z,75.10
2023-03-20T21:39:08.206Z,75.20
2023-03-20T21:42:12.393Z,75.30
2023-03-20T21:59:25.322Z,75.50
2023-03-20T22:02:23.593Z,75.60
2023-03-20T22:06:06.831Z,75.90
2023-03-20T22:13:09.777Z,75.80
2023-03-20T22:16:21.968Z,75.90
2023-03-20T22:23:15.334Z,76.00
2023-03-20T22:43:44.637Z,76.10
2023-03-20T22:49:42.423Z,76.20
2023-03-20T22:52:49.362Z,76.20
2023-03-20T22:55:53.607Z,76.30
2023-03-20T22:58:56.415Z,76.20
2023-03-20T23:01:59.885Z,76.20
2023-03-20T23:05:03.133Z,76.20
2023-03-20T23:08:09.783Z,76.30
2023-03-20T23:11:13.384Z,76.50
2023-03-20T23:14:23.632Z,76.30
2023-03-20T23:17:27.803Z,76.40
2023-03-20T23:20:30.675Z,76.40
2023-03-20T23:23:35.454Z,76.40
2023-03-20T23:26:38.244Z,76.40
2023-03-20T23:29:41.221Z,76.40
2023-03-20T23:32:44.084Z,76.40
2023-03-20T23:35:48.385Z,76.40
2023-03-20T23:38:53.253Z,76.40
2023-03-20T23:42:12.135Z,76.50
2023-03-20T23:48:42.033Z,76.30
2023-03-20T23:51:45.420Z,76.30
2023-03-20T23:54:49.534Z,76.30
2023-03-20T23:57:52.246Z,76.30
